Time;durP1;ratioP1;P1;durP2;ratioP2;P2;SDS_P1;SDS_P2;PMS_P1;PMS_P2;Temp;Humidity;BMP_temperature;BMP_pressure;BME280_temperature;BME280_humidity;BME280_pressure;Samples;Min_cycle;Max_cycle;Signal;HPM_P1;HPM_P2
2023/02/26 12:17:14;;;;;;;52.10;18.40;;;;;;;7.22;78.42;98846.59;80249;1305;3013033;-59
2023/02/26 12:20:23;;;;;;;19.90;8.20;;;;;;;7.20;78.67;98852.07;77823;1302;3054921;-59
2023/02/26 12:23:07;;;;;;;21.90;8.70;;;;;;;8.28;75.90;98846.85;77854;1304;3050716;-59
2023/02/26 12:25:52;;;;;;;18.10;7.60;;;;;;;8.70;73.31;98849.02;77827;1305;3052949;-59
2023/02/26 12:28:38;;;;;;;12.00;6.20;;;;;;;8.74;72.84;98843.54;77887;1304;3053130;-59
2023/02/26 12:31:14;;;;;;;13.20;6.70;;;;;;;8.51;71.86;98848.05;76573;1298;4959944;-59
2023/02/26 12:33:55;;;;;;;10.10;6.20;;;;;;;8.18;72.01;98853.02;78528;1297;3011911;-59
2023/02/26 12:37:01;;;;;;;11.70;6.70;;;;;;;8.05;72.74;98859.40;77797;1301;3050230;-59
2023/02/26 12:39:54;;;;;;;8.90;5.50;;;;;;;7.84;73.90;98866.53;77823;1301;3057612;-59
2023/02/26 12:42:25;;;;;;;15.10;6.80;;;;;;;7.79;74.07;98877.29;77805;1301;3049529;-59
2023/02/26 12:45:24;;;;;;;14.60;6.40;;;;;;;7.66;74.17;98887.14;79246;1299;3011555;-58
2023/02/26 12:48:29;;;;;;;13.00;7.60;;;;;;;7.51;75.82;98890.20;78040;1301;3050123;-58
2023/02/26 12:51:16;;;;;;;20.10;9.10;;;;;;;7.40;76.33;98896.98;77717;1302;3053381;-59
2023/02/26 12:53:56;;;;;;;17.70;9.80;;;;;;;7.26;77.99;98900.89;77979;1301;3053515;-59
2023/02/26 12:56:57;;;;;;;25.50;10.70;;;;;;;7.18;79.17;98900.63;78064;1301;3069237;-58
2023/02/26 12:59:27;;;;;;;13.00;6.60;;;;;;;7.13;79.31;98904.04;78049;1302;3051872;-58
2023/02/26 13:02:14;;;;;;;17.60;7.50;;;;;;;7.77;77.99;98913.36;79282;1302;3012894;-58
2023/02/26 13:04:57;;;;;;;18.50;8.10;;;;;;;8.38;75.40;98919.17;78085;1304;3050246;-59
2023/02/26 13:07:38;;;;;;;20.20;9.80;;;;;;;8.31;74.91;98919.73;77955;1305;3053274;-59
2023/02/26 13:10:07;;;;;;;19.70;10.50;;;;;;;8.21;75.30;98926.80;78117;1302;3050618;-59
2023/02/26 13:13:06;;;;;;;19.20;9.90;;;;;;;8.06;76.20;98926.14;79343;1301;3013752;-59
2023/02/26 13:15:42;;;;;;;21.80;9.90;;;;;;;7.92;76.83;98928.14;78040;1301;3069358;-59
2023/02/26 13:18:20;;;;;;;17.50;9.00;;;;;;;7.75;77.10;98930.20;78071;1302;3049996;-59
2023/02/26 13:21:41;;;;;;;14.80;7.90;;;;;;;7.62;77.53;98928.15;78011;1298;3056479;-59
2023/02/26 13:24:28;;;;;;;15.60;8.50;;;;;;;7.49;78.63;98933.02;78101;1299;3049382;-59
2023/02/26 13:26:57;;;;;;;14.20;7.70;;;;;;;7.31;78.32;98919.23;78058;1299;3054776;-58
2023/02/26 13:29:31;;;;;;;12.50;8.10;;;;;;;7.28;78.00;98921.14;79343;1312;3013059;-59
2023/02/26 13:32:20;;;;;;;18.30;8.90;;;;;;;7.33;78.58;98919.65;78058;1298;3052597;-58
2023/02/26 13:34:59;;;;;;;11.20;4.50;;;;;;;7.35;78.35;98918.16;78128;1301;3067196;-59
2023/02/26 13:37:34;;;;;;;6.70;2.90;;;;;;;7.96;74.00;98925.64;78156;1299;3053046;-59
2023/02/26 13:40:21;;;;;;;8.00;3.20;;;;;;;8.52;69.67;98915.33;78829;1297;3011883;-59
2023/02/26 13:42:59;;;;;;;6.70;3.60;;;;;;;8.54;68.13;98915.12;77992;1301;3057237;-59
2023/02/26 13:45:45;;;;;;;9.20;3.90;;;;;;;8.40;69.50;98918.20;78118;1301;3050216;-59
2023/02/26 13:48:33;;;;;;;12.90;5.80;;;;;;;8.24;71.23;98922.41;80760;1296;3055501;-59
2023/02/26 13:51:07;;;;;;;12.50;6.00;;;;;;;8.06;73.23;98910.59;80595;1296;3050721;-59
2023/02/26 13:53:39;;;;;;;15.20;6.80;;;;;;;7.89;74.86;98913.00;81474;1295;3011268;-59
2023/02/26 13:56:42;;;;;;;15.50;7.20;;;;;;;7.75;75.93;98907.84;82003;1295;3011341;-59
2023/02/26 13:59:11;;;;;;;16.10;7.30;;;;;;;7.64;76.84;98905.70;80715;1296;3053082;-59
2023/02/26 14:01:47;;;;;;;16.30;8.00;;;;;;;7.54;77.07;98897.55;82032;1295;3012413;-59
2023/02/26 14:04:18;;;;;;;16.60;8.30;;;;;;;7.50;77.76;98891.17;80752;1295;3056243;-60
2023/02/26 14:06:47;;;;;;;16.60;7.90;;;;;;;7.46;78.09;98887.20;82047;1295;3011173;-58
2023/02/26 14:09:21;;;;;;;13.10;8.40;;;;;;;7.39;78.17;98890.95;80671;1295;3053248;-64
2023/02/26 14:11:54;;;;;;;15.30;8.40;;;;;;;7.29;78.45;98876.52;81419;1295;3011276;-62
2023/02/26 14:14:20;;;;;;;12.50;7.70;;;;;;;7.24;78.80;98896.13;82022;1298;3011330;-61
2023/02/26 14:17:02;;;;;;;12.20;7.50;;;;;;;7.16;79.47;98876.00;80767;1297;3051814;-62
2023/02/26 14:19:51;;;;;;;8.90;5.00;;;;;;;7.09;80.00;98891.04;80763;1298;3052351;-62
2023/02/26 14:22:32;;;;;;;8.90;5.20;;;;;;;7.74;79.08;98894.17;80774;1295;3067964;-62
2023/02/26 14:25:21;;;;;;;12.40;6.20;;;;;;;8.24;76.91;98911.64;80736;1295;3050014;-62
2023/02/26 14:27:49;;;;;;;13.90;7.40;;;;;;;8.30;77.02;98923.69;80636;1295;3056256;-62
2023/02/26 14:30:24;;;;;;;15.10;8.90;;;;;;;8.20;77.13;98919.73;82024;1295;3011279;-63
2023/02/26 14:33:02;;;;;;;17.10;8.20;;;;;;;7.98;78.13;98918.94;80636;1296;3049594;-61
2023/02/26 14:35:43;;;;;;;15.20;8.80;;;;;;;7.78;78.29;98919.35;80761;1300;3052562;-62
2023/02/26 14:38:19;;;;;;;16.90;9.00;;;;;;;7.63;78.14;98911.14;80672;1298;3053896;-61
2023/02/26 14:40:56;;;;;;;21.60;10.20;;;;;;;7.54;78.41;98912.21;80730;1295;3068810;-60
2023/02/26 14:43:35;;;;;;;16.80;8.70;;;;;;;7.42;79.00;98898.73;80584;1296;3050196;-60
2023/02/26 14:46:03;;;;;;;18.80;10.40;;;;;;;7.30;79.44;98900.85;80772;1296;3056511;-60
2023/02/26 14:48:38;;;;;;;17.60;9.40;;;;;;;7.22;79.65;98906.14;80680;1295;3048855;-60
2023/02/26 14:51:31;;;;;;;17.80;8.70;;;;;;;7.15;80.37;98903.73;81899;1298;3018566;-61
2023/02/26 14:54:13;;;;;;;11.60;5.70;;;;;;;7.20;80.59;98893.75;80779;1297;3052549;-59
2023/02/26 14:56:51;;;;;;;17.50;8.30;;;;;;;7.89;78.25;98881.44;80758;1298;3053687;-60
2023/02/26 14:59:26;;;;;;;29.80;12.10;;;;;;;8.52;75.52;98864.97;80744;1295;3068825;-60
2023/02/26 15:01:57;;;;;;;47.90;18.40;;;;;;;8.53;74.51;98857.19;80733;1296;3050301;-62
2023/02/26 15:04:34;;;;;;;48.10;20.60;;;;;;;8.34;74.61;98854.13;82005;1295;3011326;-61
2023/02/26 15:07:32;;;;;;;47.90;19.80;;;;;;;8.13;75.23;98863.09;80745;1296;3050072;-60
2023/02/26 15:10:13;;;;;;;43.50;18.50;;;;;;;7.87;75.97;98874.22;80728;1295;3054322;-60
2023/02/26 15:13:20;;;;;;;27.20;12.80;;;;;;;7.76;75.76;98881.61;80651;1298;3050069;-61
2023/02/26 15:15:48;;;;;;;25.70;10.20;;;;;;;7.69;75.44;98891.80;80732;1298;3051939;-60
2023/02/26 15:18:18;;;;;;;16.10;8.70;;;;;;;7.58;74.95;98899.05;82051;1295;3012995;-60
2023/02/26 15:20:59;;;;;;;13.80;6.60;;;;;;;7.49;74.76;98906.91;80671;1296;3051468;-62
2023/02/26 15:23:48;;;;;;;12.70;5.40;;;;;;;7.38;74.59;98914.13;80724;1295;3056554;-61
2023/02/26 15:26:36;;;;;;;9.10;5.30;;;;;;;7.35;74.56;98919.38;80593;1295;3048677;-60
2023/02/26 15:29:06;;;;;;;8.40;4.90;;;;;;;7.30;74.40;98932.73;80672;1296;3053913;-64
2023/02/26 15:31:34;;;;;;;8.70;4.70;;;;;;;7.26;74.42;98943.92;81833;1295;3011420;-60
2023/02/26 15:34:02;;;;;;;8.90;4.40;;;;;;;7.21;74.28;98954.11;80767;1298;3025861;-61
2023/02/26 15:36:30;;;;;;;8.40;4.20;;;;;;;7.15;74.05;98966.46;82028;1295;3018520;-61
2023/02/26 15:38:58;;;;;;;10.20;5.00;;;;;;;7.07;74.18;98976.46;81991;1295;3010972;-60
2023/02/26 15:41:27;;;;;;;10.90;6.20;;;;;;;7.00;74.29;98986.05;80759;1296;3057035;-61
2023/02/26 15:44:03;;;;;;;9.50;5.80;;;;;;;6.94;74.24;98995.08;81930;1295;3013778;-60
2023/02/26 15:46:33;;;;;;;11.90;6.30;;;;;;;6.87;74.65;98999.27;80615;1295;3052512;-61
2023/02/26 15:49:04;;;;;;;12.30;6.00;;;;;;;6.84;75.18;99003.11;81994;1295;3011170;-61
2023/02/26 15:51:35;;;;;;;11.20;6.30;;;;;;;6.86;75.25;99007.00;80636;1301;3052882;-60
2023/02/26 15:54:03;;;;;;;16.30;7.10;;;;;;;6.86;75.21;99008.39;81922;1301;3012560;-61
2023/02/26 15:56:33;;;;;;;16.80;7.80;;;;;;;6.84;75.60;99007.42;81854;1298;3011374;-60
2023/02/26 15:59:05;;;;;;;16.40;7.50;;;;;;;6.83;75.72;99006.80;80657;1295;3055158;-61
2023/02/26 16:01:31;;;;;;;11.80;7.20;;;;;;;6.80;75.93;99000.88;82027;1295;3011236;-61
2023/02/26 16:04:04;;;;;;;10.10;7.40;;;;;;;6.78;76.10;99002.53;81408;1295;3011517;-60
2023/02/26 16:06:36;;;;;;;11.50;7.20;;;;;;;6.81;76.58;99026.58;82003;1295;3011292;-61
2023/02/26 16:09:06;;;;;;;13.00;7.30;;;;;;;6.79;76.48;99030.67;80765;1295;3053497;-60
2023/02/26 16:11:36;;;;;;;10.20;5.80;;;;;;;6.77;76.77;99034.61;82044;1297;3013581;-60
2023/02/26 16:14:05;;;;;;;13.50;6.40;;;;;;;7.27;75.95;99042.94;80758;1298;3068692;-61
2023/02/26 16:16:39;;;;;;;15.30;7.80;;;;;;;7.87;74.41;99053.45;81880;1295;3011291;-60
2023/02/26 16:19:11;;;;;;;17.50;9.70;;;;;;;8.03;74.02;99060.41;80741;1295;3055928;-60
2023/02/26 16:21:39;;;;;;;19.70;10.70;;;;;;;7.75;74.64;99058.14;81920;1295;3011205;-61
2023/02/26 16:24:09;;;;;;;21.40;13.40;;;;;;;7.70;75.53;99057.91;80767;1295;3053605;-60
2023/02/26 16:26:42;;;;;;;24.70;13.40;;;;;;;7.51;75.95;99055.95;81999;1295;3011600;-60
2023/02/26 16:29:13;;;;;;;24.70;15.10;;;;;;;7.43;76.52;99045.78;80607;1301;3052474;-60
2023/02/26 16:31:39;;;;;;;25.40;14.40;;;;;;;7.23;77.37;99048.05;81964;1298;3011218;-60
2023/02/26 16:34:44;;;;;;;25.70;14.70;;;;;;;7.17;77.94;99046.27;80636;1295;3068779;-60
2023/02/26 16:37:24;;;;;;;25.30;14.20;;;;;;;7.15;78.37;99051.25;80763;1295;3050761;-60
2023/02/26 16:40:03;;;;;;;26.20;15.80;;;;;;;7.12;78.63;99058.39;80790;1295;3056634;-60
2023/02/26 16:42:35;;;;;;;32.60;16.30;;;;;;;6.99;78.66;99060.80;80787;1295;3049229;-60
2023/02/26 16:45:36;;;;;;;24.50;14.20;;;;;;;6.85;78.62;99068.84;81917;1295;3011107;-60
2023/02/26 16:48:13;;;;;;;22.60;13.30;;;;;;;6.76;77.83;99070.54;80796;1295;3049551;-60
2023/02/26 16:50:40;;;;;;;23.30;11.70;;;;;;;6.72;77.78;99078.91;81953;1295;3011331;-60
2023/02/26 16:53:16;;;;;;;22.30;11.70;;;;;;;6.65;77.71;99083.27;80776;1295;3052016;-60
2023/02/26 16:55:53;;;;;;;29.80;14.30;;;;;;;6.48;78.18;99087.25;80768;1295;3068156;-60
2023/02/26 16:58:21;;;;;;;26.60;14.00;;;;;;;6.40;79.44;99081.55;80661;1298;3052529;-60
2023/02/26 17:01:00;;;;;;;25.80;11.50;;;;;;;6.33;80.14;99075.81;81916;1298;3018176;-63
2023/02/26 17:03:28;;;;;;;23.70;12.00;;;;;;;7.04;79.18;99073.80;80724;1295;3053115;-61
2023/02/26 17:06:05;;;;;;;23.30;11.50;;;;;;;7.76;77.23;99073.40;82036;1295;3011361;-61
2023/02/26 17:08:42;;;;;;;27.40;14.40;;;;;;;7.87;75.63;99081.89;80799;1295;3052075;-61
2023/02/26 17:11:21;;;;;;;31.60;14.90;;;;;;;7.73;75.23;99087.00;80680;1298;3052802;-61
2023/02/26 17:14:20;;;;;;;30.10;14.40;;;;;;;7.64;75.73;99082.27;80679;1296;3068932;-62
2023/02/26 17:16:50;;;;;;;28.20;15.50;;;;;;;7.43;75.80;99093.70;80703;1296;3051605;-61
2023/02/26 17:19:17;;;;;;;27.60;14.50;;;;;;;7.14;76.69;99095.90;82047;1295;3013229;-61
2023/02/26 17:21:49;;;;;;;28.20;14.80;;;;;;;6.96;77.59;99103.45;82043;1295;3011329;-61
2023/02/26 17:24:20;;;;;;;21.70;12.60;;;;;;;6.64;78.42;99105.41;80653;1298;3047937;-62
2023/02/26 17:26:46;;;;;;;23.50;12.40;;;;;;;6.41;79.51;99103.79;82056;1295;3011389;-62
2023/02/26 17:29:21;;;;;;;21.20;11.90;;;;;;;6.07;81.15;99118.30;81510;1300;3011139;-61
2023/02/26 17:31:49;;;;;;;20.20;12.00;;;;;;;6.05;81.17;99127.44;82003;1300;3011067;-61
2023/02/26 17:34:18;;;;;;;18.40;10.80;;;;;;;5.77;82.34;99123.82;80758;1295;3051212;-60
2023/02/26 17:36:44;;;;;;;17.80;10.50;;;;;;;5.76;83.06;99112.55;81931;1295;3011174;-60
2023/02/26 17:39:12;;;;;;;10.60;6.40;;;;;;;5.89;83.10;99103.41;82085;1295;3011271;-59
2023/02/26 17:41:43;;;;;;;9.70;6.20;;;;;;;6.46;81.71;99095.14;80770;1295;3049000;-61
2023/02/26 17:44:09;;;;;;;17.60;8.00;;;;;;;7.13;79.12;99085.15;82036;1295;3011234;-62
2023/02/26 17:46:41;;;;;;;17.60;8.60;;;;;;;7.25;77.61;99082.45;80781;1295;3052565;-61
2023/02/26 17:49:09;;;;;;;16.10;7.80;;;;;;;7.18;77.57;99080.16;81953;1298;3018761;-61
2023/02/26 17:51:36;;;;;;;15.00;9.00;;;;;;;7.12;77.47;99076.67;81950;1295;3010973;-61
2023/02/26 17:54:04;;;;;;;17.10;9.00;;;;;;;6.91;77.55;99082.27;80802;1295;3049900;-61
2023/02/26 17:56:32;;;;;;;17.60;9.80;;;;;;;6.60;78.48;99074.27;82042;1295;3018204;-62
2023/02/26 17:59:00;;;;;;;17.20;9.10;;;;;;;6.39;79.71;99070.48;81922;1298;3011137;-62
2023/02/26 18:01:28;;;;;;;18.00;10.20;;;;;;;6.31;80.14;99085.98;80751;1295;3052813;-61
2023/02/26 18:04:00;;;;;;;17.90;10.20;;;;;;;6.18;80.94;99110.31;82040;1295;3011311;-62
2023/02/26 18:06:33;;;;;;;18.20;10.10;;;;;;;6.14;81.23;99111.16;80822;1295;3050866;-63
2023/02/26 18:09:00;;;;;;;21.00;10.60;;;;;;;6.11;81.29;99113.05;81831;1297;3011198;-61
2023/02/26 18:11:29;;;;;;;17.80;9.60;;;;;;;6.12;81.45;99100.84;81469;1295;3011640;-61
2023/02/26 18:13:56;;;;;;;12.00;6.80;;;;;;;6.18;80.94;99097.77;82069;1295;3018060;-61
2023/02/26 18:16:32;;;;;;;11.20;7.10;;;;;;;6.65;79.67;99084.66;80808;1295;3052094;-63
2023/02/26 18:18:59;;;;;;;15.40;8.20;;;;;;;7.23;77.88;99082.22;82076;1295;3011273;-64
2023/02/26 18:21:26;;;;;;;14.20;8.90;;;;;;;7.23;76.76;99071.94;82062;1295;3011442;-64
2023/02/26 18:23:55;;;;;;;18.90;9.40;;;;;;;7.17;77.07;99069.30;80798;1295;3055804;-61
2023/02/26 18:26:24;;;;;;;16.30;10.90;;;;;;;7.06;77.30;99068.99;82088;1295;3012962;-61
2023/02/26 18:28:54;;;;;;;18.90;12.00;;;;;;;6.92;77.65;99075.08;81503;1295;3011237;-61
2023/02/26 18:31:21;;;;;;;21.90;12.70;;;;;;;6.69;77.94;99078.69;82041;1295;3011300;-62
2023/02/26 18:33:48;;;;;;;21.70;12.50;;;;;;;6.59;78.45;99083.41;82032;1295;3011176;-66
2023/02/26 18:36:28;;;;;;;20.30;11.90;;;;;;;6.38;78.89;99081.12;80781;1295;3068732;-63
2023/02/26 18:39:00;;;;;;;23.80;12.90;;;;;;;6.34;79.91;99091.05;80694;1295;3051873;-65
2023/02/26 18:41:28;;;;;;;22.20;12.80;;;;;;;6.37;79.46;99101.70;82054;1295;3011505;-63
2023/02/26 18:43:56;;;;;;;24.40;12.80;;;;;;;6.36;79.46;99107.81;80793;1295;3027972;-65
2023/02/26 18:46:23;;;;;;;23.40;12.90;;;;;;;6.31;79.37;99115.73;82059;1295;3018667;-62
2023/02/26 18:48:49;;;;;;;25.30;12.70;;;;;;;6.18;79.86;99129.77;82032;1295;3011225;-62
2023/02/26 18:51:17;;;;;;;14.50;8.40;;;;;;;6.19;80.00;99141.01;80764;1295;3026196;-61
2023/02/26 18:53:44;;;;;;;16.30;8.00;;;;;;;6.68;78.86;99152.94;82047;1295;3011452;-62
2023/02/26 18:56:11;;;;;;;16.40;8.40;;;;;;;7.24;77.00;99146.59;82016;1295;3011088;-62
2023/02/26 18:58:39;;;;;;;14.30;8.20;;;;;;;7.35;76.33;99140.61;80762;1295;3047844;-62
2023/02/26 19:01:06;;;;;;;17.40;9.10;;;;;;;7.17;76.03;99139.84;82052;1295;3012890;-61
2023/02/26 19:03:33;;;;;;;20.00;11.10;;;;;;;7.05;76.67;99142.70;82034;1295;3011161;-64
2023/02/26 19:06:03;;;;;;;23.10;11.10;;;;;;;6.89;77.02;99143.16;80800;1295;3026753;-61
2023/02/26 19:08:30;;;;;;;19.20;11.20;;;;;;;6.69;77.26;99141.35;82036;1295;3011322;-62
2023/02/26 19:11:00;;;;;;;25.80;13.30;;;;;;;6.53;77.96;99152.80;81509;1295;3011467;-62
2023/02/26 19:13:32;;;;;;;28.70;13.70;;;;;;;6.37;78.58;99166.75;82034;1296;3011335;-63
2023/02/26 19:16:00;;;;;;;24.60;14.00;;;;;;;6.20;79.10;99165.30;80810;1295;3049372;-61
2023/02/26 19:18:26;;;;;;;24.70;13.70;;;;;;;6.17;79.62;99170.66;82077;1295;3012585;-61
2023/02/26 19:20:53;;;;;;;24.20;14.00;;;;;;;6.07;79.80;99173.23;82038;1295;3011077;-63
2023/02/26 19:23:25;;;;;;;22.60;12.90;;;;;;;5.98;80.33;99180.77;80778;1300;3051775;-61
2023/02/26 19:25:54;;;;;;;21.30;11.90;;;;;;;5.95;80.40;99189.56;82056;1295;3012256;-61
2023/02/26 19:28:21;;;;;;;23.70;11.80;;;;;;;5.89;80.64;99176.45;82087;1295;3011401;-62
2023/02/26 19:30:53;;;;;;;15.90;8.10;;;;;;;5.86;81.12;99172.40;80775;1295;3049140;-61
2023/02/26 19:33:20;;;;;;;13.60;8.10;;;;;;;6.44;79.82;99181.05;82061;1295;3011441;-61
2023/02/26 19:35:49;;;;;;;17.20;9.20;;;;;;;6.94;77.71;99178.08;80773;1295;3026466;-62
2023/02/26 19:38:16;;;;;;;17.40;9.30;;;;;;;6.96;77.05;99174.83;82066;1295;3013214;-61
2023/02/26 19:40:42;;;;;;;17.70;9.90;;;;;;;6.88;77.57;99165.84;82084;1295;3011615;-61
2023/02/26 19:43:10;;;;;;;17.60;9.20;;;;;;;6.72;78.35;99165.09;80811;1295;3052290;-61
2023/02/26 19:45:37;;;;;;;16.30;8.80;;;;;;;6.68;78.94;99165.63;82049;1296;3018768;-61
2023/02/26 19:48:05;;;;;;;18.20;10.00;;;;;;;6.57;79.03;99165.30;82075;1295;3011217;-61
2023/02/26 19:50:33;;;;;;;16.70;9.40;;;;;;;6.47;79.13;99166.45;80794;1295;3048994;-61
2023/02/26 19:53:02;;;;;;;15.80;8.50;;;;;;;6.34;79.13;99162.39;82066;1295;3010766;-61
2023/02/26 19:55:29;;;;;;;15.60;7.80;;;;;;;6.25;79.45;99165.41;82100;1295;3011330;-61
2023/02/26 20:00:41;;;;;;;19.20;9.40;;;;;;;6.10;80.53;99163.67;80044;1300;3013177;-63
2023/02/26 20:03:08;;;;;;;12.70;8.20;;;;;;;6.08;80.87;99163.48;79006;1301;3013102;-63
2023/02/26 20:05:36;;;;;;;8.50;5.50;;;;;;;6.04;80.74;99158.75;79123;1304;3011712;-63
2023/02/26 20:08:04;;;;;;;8.10;4.20;;;;;;;6.56;79.59;99157.84;77963;1303;3053662;-63
2023/02/26 20:10:34;;;;;;;8.20;4.40;;;;;;;7.10;77.35;99144.36;79043;1303;3011747;-62
2023/02/26 20:13:01;;;;;;;5.60;3.90;;;;;;;7.14;76.84;99142.77;75984;1302;3028138;-63
2023/02/26 20:15:28;;;;;;;7.80;4.50;;;;;;;7.14;76.72;99138.27;79264;1301;3018855;-62
2023/02/26 20:17:54;;;;;;;10.90;5.40;;;;;;;6.94;76.93;99135.58;79302;1300;3011431;-62
2023/02/26 20:20:24;;;;;;;10.50;5.50;;;;;;;6.69;77.90;99124.48;78046;1300;3050200;-62
2023/02/26 20:22:50;;;;;;;9.80;5.60;;;;;;;6.54;78.41;99118.26;79180;1300;3013180;-61
2023/02/26 20:25:18;;;;;;;9.40;6.10;;;;;;;6.37;78.78;99119.98;79204;1301;3011829;-61
2023/02/26 20:27:46;;;;;;;12.30;6.60;;;;;;;6.34;79.62;99129.87;77964;1300;3051053;-61
2023/02/26 20:30:13;;;;;;;11.20;6.60;;;;;;;6.30;80.06;99143.64;79346;1301;3012908;-63
2023/02/26 20:32:40;;;;;;;12.00;7.00;;;;;;;6.11;79.88;99156.52;79214;1298;3011669;-62
2023/02/26 20:35:09;;;;;;;12.10;7.20;;;;;;;5.99;80.32;99179.31;78075;1300;3050217;-61
2023/02/26 20:37:35;;;;;;;8.30;5.10;;;;;;;5.83;81.16;99198.09;79303;1300;3013720;-61
2023/02/26 20:40:04;;;;;;;8.20;4.60;;;;;;;6.34;80.41;99211.45;79160;1298;3011750;-61
2023/02/26 20:42:33;;;;;;;8.70;5.00;;;;;;;6.98;78.05;99221.45;78007;1300;3050234;-62
2023/02/26 20:45:01;;;;;;;12.80;6.30;;;;;;;7.10;77.26;99224.15;79325;1297;3011716;-62
2023/02/26 20:47:30;;;;;;;11.10;6.10;;;;;;;6.93;77.17;99226.70;78848;1297;3011436;-62
2023/02/26 20:49:57;;;;;;;13.40;7.50;;;;;;;6.76;77.58;99220.40;79314;1297;3013950;-62
2023/02/26 20:52:23;;;;;;;14.40;8.50;;;;;;;6.51;78.28;99221.59;79229;1298;3011780;-61
2023/02/26 20:54:52;;;;;;;13.30;8.00;;;;;;;6.38;78.93;99217.52;78029;1300;3026232;-62
2023/02/26 20:57:18;;;;;;;14.10;8.10;;;;;;;6.18;79.37;99220.22;79341;1300;3013370;-61
2023/02/26 20:59:45;;;;;;;16.00;8.90;;;;;;;6.07;80.10;99221.91;79194;1300;3011992;-61
2023/02/26 21:02:19;;;;;;;15.40;8.30;;;;;;;5.93;80.70;99220.94;78282;1298;3049126;-62
2023/02/26 21:04:46;;;;;;;15.70;9.00;;;;;;;5.90;81.15;99226.32;79296;1300;3011531;-61
2023/02/26 21:07:20;;;;;;;13.00;6.50;;;;;;;5.84;81.44;99228.82;77977;1300;3026607;-62
2023/02/26 21:09:48;;;;;;;13.40;6.80;;;;;;;6.35;80.32;99231.39;79216;1300;3011908;-62
2023/02/26 21:12:17;;;;;;;14.00;8.40;;;;;;;6.93;78.27;99234.70;77924;1302;3055301;-63
2023/02/26 21:14:43;;;;;;;13.50;8.40;;;;;;;6.94;77.09;99241.45;79153;1298;3013554;-62
2023/02/26 21:17:10;;;;;;;13.80;8.20;;;;;;;6.63;77.38;99243.86;79155;1295;3011597;-62
2023/02/26 21:19:40;;;;;;;16.60;9.50;;;;;;;6.51;77.80;99247.18;78058;1299;3050286;-62
2023/02/26 21:22:07;;;;;;;17.20;9.90;;;;;;;6.37;78.06;99251.85;79295;1300;3013458;-66
2023/02/26 21:24:34;;;;;;;15.90;10.20;;;;;;;6.22;78.30;99259.15;79381;1301;3011429;-62
2023/02/26 21:27:02;;;;;;;13.50;8.30;;;;;;;6.02;78.83;99264.37;78028;1299;3028204;-62
2023/02/26 21:29:29;;;;;;;14.90;8.50;;;;;;;5.72;79.58;99262.75;79332;1295;3013158;-62
2023/02/26 21:31:57;;;;;;;17.80;9.80;;;;;;;5.51;80.52;99267.63;79306;1298;3011942;-62
2023/02/26 21:34:25;;;;;;;15.10;8.50;;;;;;;5.45;81.31;99269.30;78111;1300;3049148;-63
2023/02/26 21:36:56;;;;;;;16.50;9.10;;;;;;;5.35;81.70;99276.48;79296;1300;3011626;-63
2023/02/26 21:39:24;;;;;;;11.80;5.80;;;;;;;5.29;81.81;99286.80;78130;1300;3050142;-62
2023/02/26 21:41:51;;;;;;;11.50;5.70;;;;;;;5.69;81.10;99294.85;79405;1300;3013502;-62
2023/02/26 21:44:17;;;;;;;10.50;6.60;;;;;;;6.20;79.27;99300.09;79383;1295;3011483;-63
2023/02/26 21:46:45;;;;;;;10.60;6.50;;;;;;;6.22;78.66;99301.59;78142;1295;3027421;-63
2023/02/26 21:49:12;;;;;;;13.70;7.70;;;;;;;6.05;78.76;99308.61;79415;1298;3013056;-62
2023/02/26 21:51:39;;;;;;;10.60;7.10;;;;;;;5.79;79.59;99316.33;79286;1298;3013253;-62
2023/02/26 21:54:08;;;;;;;11.20;6.20;;;;;;;5.63;79.95;99311.39;78161;1299;3050783;-62
2023/02/26 21:56:34;;;;;;;10.30;5.70;;;;;;;5.08;81.49;99311.61;79353;1299;3019386;-62
2023/02/26 21:59:01;;;;;;;9.30;6.30;;;;;;;5.08;82.32;99314.56;79310;1300;3011875;-62
2023/02/26 22:01:30;;;;;;;10.10;5.50;;;;;;;5.06;82.20;99313.23;78209;1299;3026093;-63
2023/02/26 22:03:57;;;;;;;10.80;6.20;;;;;;;4.94;82.22;99315.14;79414;1295;3018871;-63
2023/02/26 22:06:23;;;;;;;7.60;4.70;;;;;;;4.91;82.68;99317.50;79377;1299;3011575;-62
2023/02/26 22:08:51;;;;;;;6.00;3.30;;;;;;;5.40;82.01;99317.09;78282;1300;3028931;-62
2023/02/26 22:11:18;;;;;;;7.60;4.80;;;;;;;5.96;79.45;99320.96;79486;1300;3012663;-62
2023/02/26 22:13:47;;;;;;;7.60;4.60;;;;;;;6.06;78.54;99320.70;79398;1297;3012165;-62
2023/02/26 22:16:15;;;;;;;6.10;4.40;;;;;;;5.91;78.78;99323.27;78273;1300;3052142;-63
2023/02/26 22:18:44;;;;;;;9.30;5.70;;;;;;;5.77;79.03;99326.48;79405;1300;3011690;-63
2023/02/26 22:21:13;;;;;;;12.60;6.50;;;;;;;5.62;79.33;99324.16;78866;1295;3012846;-63
2023/02/26 22:23:49;;;;;;;13.40;7.10;;;;;;;5.43;79.73;99321.29;78985;1297;3012779;-62
2023/02/26 22:26:16;;;;;;;12.10;7.40;;;;;;;5.26;80.18;99324.11;79342;1294;3015030;-62
2023/02/26 22:28:42;;;;;;;13.10;8.00;;;;;;;5.04;80.90;99314.38;79389;1297;3011909;-63
2023/02/26 22:31:10;;;;;;;15.50;8.70;;;;;;;4.98;81.51;99310.61;78154;1300;3052002;-62
2023/02/26 22:33:37;;;;;;;15.90;8.70;;;;;;;4.89;82.00;99313.77;79328;1300;3018741;-62
2023/02/26 22:36:04;;;;;;;16.50;7.40;;;;;;;4.84;82.45;99324.38;79244;1300;3012037;-64
2023/02/26 22:38:32;;;;;;;9.50;5.40;;;;;;;5.35;81.49;99325.09;78255;1300;3026026;-62
2023/02/26 22:41:00;;;;;;;11.40;6.90;;;;;;;5.80;79.57;99321.98;79390;1300;3015038;-63
2023/02/26 22:43:26;;;;;;;12.80;8.20;;;;;;;5.97;78.85;99325.82;79652;1300;3011662;-62
2023/02/26 22:45:54;;;;;;;11.70;8.00;;;;;;;5.79;78.63;99329.17;78201;1294;3052342;-62
2023/02/26 22:48:22;;;;;;;15.80;7.60;;;;;;;5.74;79.59;99329.05;79423;1297;3013569;-62
2023/02/26 22:50:49;;;;;;;12.60;7.70;;;;;;;5.70;79.83;99329.70;79365;1300;3013034;-62
2023/02/26 22:53:18;;;;;;;12.60;7.60;;;;;;;5.58;79.61;99332.15;78276;1298;3049146;-62
2023/02/26 22:55:44;;;;;;;12.20;7.30;;;;;;;5.47;79.87;99327.91;79349;1295;3012870;-62
2023/02/26 22:58:12;;;;;;;11.60;7.60;;;;;;;5.33;80.13;99324.13;79353;1295;3011862;-62
2023/02/26 23:00:40;;;;;;;12.00;7.50;;;;;;;5.17;80.64;99320.30;78262;1295;3053724;-63
2023/02/26 23:03:13;;;;;;;10.40;6.10;;;;;;;5.08;81.05;99329.33;79491;1296;3011947;-62
2023/02/26 23:05:42;;;;;;;6.30;3.80;;;;;;;5.02;81.48;99338.25;78207;1295;3050098;-62
2023/02/26 23:08:11;;;;;;;7.80;4.00;;;;;;;5.63;80.43;99340.10;79432;1295;3013157;-62
2023/02/26 23:10:37;;;;;;;6.50;4.20;;;;;;;6.10;77.98;99329.74;79390;1297;3011617;-61
2023/02/26 23:13:05;;;;;;;9.10;4.70;;;;;;;6.27;77.28;99326.23;78180;1300;3051018;-62
2023/02/26 23:15:32;;;;;;;6.60;4.30;;;;;;;6.27;77.17;99326.40;79423;1301;3013379;-62
2023/02/26 23:18:00;;;;;;;6.90;4.50;;;;;;;5.93;76.81;99334.45;79522;1300;3013575;-62
2023/02/26 23:20:28;;;;;;;14.00;5.50;;;;;;;5.78;77.80;99336.86;78303;1298;3052450;-62
2023/02/26 23:22:55;;;;;;;7.70;5.20;;;;;;;5.56;78.27;99335.35;79527;1295;3013039;-62
2023/02/26 23:25:22;;;;;;;8.00;5.30;;;;;;;5.33;79.05;99340.83;79465;1295;3011710;-62
2023/02/26 23:27:50;;;;;;;12.30;5.70;;;;;;;5.28;79.31;99341.20;78193;1299;3050506;-62
2023/02/26 23:30:20;;;;;;;8.50;5.50;;;;;;;5.16;79.48;99350.52;79496;1300;3012999;-62
2023/02/26 23:32:48;;;;;;;11.20;6.20;;;;;;;4.95;80.09;99351.89;78231;1299;3068211;-63
2023/02/26 23:35:24;;;;;;;9.10;5.50;;;;;;;4.72;81.17;99353.99;78915;1301;3013440;-62
2023/02/26 23:37:51;;;;;;;8.70;4.60;;;;;;;4.70;81.80;99361.70;79393;1298;3013394;-62
2023/02/26 23:40:18;;;;;;;10.20;4.60;;;;;;;5.07;80.87;99368.08;79523;1295;3011962;-63
2023/02/26 23:42:46;;;;;;;14.90;5.00;;;;;;;5.73;79.10;99365.04;78221;1299;3053014;-63
2023/02/26 23:45:13;;;;;;;13.70;4.60;;;;;;;5.78;77.77;99362.58;79441;1301;3018592;-63
2023/02/26 23:47:40;;;;;;;9.40;5.30;;;;;;;5.63;77.76;99364.77;82090;1298;3011162;-64
2023/02/26 23:50:09;;;;;;;7.70;5.10;;;;;;;5.51;78.55;99356.92;80843;1294;3026528;-64
2023/02/26 23:52:36;;;;;;;11.10;5.50;;;;;;;5.31;78.58;99362.94;82105;1294;3011270;-64
2023/02/26 23:55:03;;;;;;;11.30;5.00;;;;;;;5.21;79.39;99364.40;82110;1294;3011392;-63
2023/02/26 23:57:32;;;;;;;9.20;5.40;;;;;;;5.10;79.72;99370.38;80839;1295;3052785;-63
2023/02/26 23:59:59;;;;;;;10.20;4.90;;;;;;;5.07;79.92;99372.44;82112;1295;3018427;-64
